createdAt,value
2023-05-11T00:00:36.833Z,4.45
2023-05-11T00:03:03.532Z,4.43
2023-05-11T00:05:30.003Z,4.43
2023-05-11T00:07:56.451Z,3.83
2023-05-11T00:10:22.864Z,4.50
2023-05-11T00:12:49.313Z,4.32
2023-05-11T00:15:15.843Z,4.35
2023-05-11T00:17:42.467Z,4.50
2023-05-11T00:20:08.979Z,5.15
2023-05-11T00:22:35.473Z,4.60
2023-05-11T00:25:01.968Z,4.30
2023-05-11T00:27:28.430Z,5.25
2023-05-11T00:29:54.878Z,4.95
2023-05-11T00:32:21.294Z,4.90
2023-05-11T00:34:47.770Z,5.00
2023-05-11T00:37:14.228Z,4.15
2023-05-11T00:39:40.813Z,4.45
2023-05-11T00:42:07.584Z,4.35
2023-05-11T00:44:34.063Z,4.65
2023-05-11T00:47:00.564Z,4.00
2023-05-11T00:49:27.079Z,3.85
2023-05-11T00:51:53.508Z,3.90
2023-05-11T00:54:19.902Z,4.05
2023-05-11T00:56:46.538Z,4.50
2023-05-11T00:59:12.943Z,4.18
2023-05-11T01:01:39.337Z,4.93
2023-05-11T01:04:05.717Z,4.20
2023-05-11T01:06:32.163Z,4.15
2023-05-11T01:08:58.552Z,4.90
2023-05-11T01:11:25.038Z,4.28
2023-05-11T01:13:51.471Z,4.70
2023-05-11T01:16:17.920Z,4.65
2023-05-11T01:18:44.401Z,4.43
2023-05-11T01:21:10.865Z,4.28
2023-05-11T01:23:37.526Z,4.93
2023-05-11T01:26:04.000Z,4.38
2023-05-11T01:28:30.401Z,4.80
2023-05-11T01:30:56.838Z,4.90
2023-05-11T01:33:23.328Z,4.82
2023-05-11T01:35:49.767Z,4.82
2023-05-11T01:38:16.173Z,4.55
2023-05-11T01:40:42.530Z,4.65
2023-05-11T01:43:08.958Z,5.00
2023-05-11T01:45:35.356Z,4.18
2023-05-11T01:48:01.797Z,4.47
2023-05-11T01:50:28.274Z,5.38
2023-05-11T01:52:54.716Z,5.38
2023-05-11T01:55:21.150Z,5.05
2023-05-11T01:57:47.581Z,5.22
2023-05-11T02:00:14.095Z,5.38
2023-05-11T02:02:40.566Z,5.43
2023-05-11T02:05:07.108Z,5.43
2023-05-11T02:07:33.516Z,5.60
2023-05-11T02:09:59.975Z,5.32
2023-05-11T02:12:26.456Z,5.18
2023-05-11T02:14:52.853Z,5.90
2023-05-11T02:17:19.223Z,4.60
2023-05-11T02:19:45.804Z,5.85
2023-05-11T02:22:12.239Z,5.22
2023-05-11T02:24:38.655Z,5.15
2023-05-11T02:27:05.111Z,5.57
2023-05-11T02:29:31.533Z,4.97
2023-05-11T02:31:57.950Z,5.28
2023-05-11T02:34:24.411Z,5.60
2023-05-11T02:36:50.898Z,5.32
2023-05-11T02:39:17.286Z,5.80
2023-05-11T02:41:43.662Z,5.82
2023-05-11T02:44:10.101Z,6.03
2023-05-11T02:46:36.900Z,5.45
2023-05-11T02:49:03.510Z,5.80
2023-05-11T02:51:29.993Z,6.47
2023-05-11T02:53:56.436Z,5.72
2023-05-11T02:56:22.899Z,6.13
2023-05-11T02:58:49.301Z,6.30
2023-05-11T03:01:15.986Z,5.70
2023-05-11T03:03:42.572Z,5.60
2023-05-11T03:06:09.136Z,5.43
2023-05-11T03:08:35.532Z,6.07
2023-05-11T03:11:01.929Z,5.95
2023-05-11T03:13:28.355Z,5.43
2023-05-11T03:15:54.808Z,6.43
2023-05-11T03:18:21.250Z,5.72
2023-05-11T03:20:47.651Z,5.43
2023-05-11T03:23:14.056Z,5.50
2023-05-11T03:25:40.513Z,5.65
2023-05-11T03:28:06.915Z,5.85
2023-05-11T03:30:33.367Z,5.40
2023-05-11T03:32:59.858Z,5.70
2023-05-11T03:35:26.303Z,5.35
2023-05-11T03:37:52.667Z,5.32
2023-05-11T03:40:19.306Z,5.10
2023-05-11T03:42:45.976Z,4.97
2023-05-11T03:45:12.451Z,4.97
2023-05-11T03:47:38.910Z,4.90
2023-05-11T03:50:05.343Z,4.50
2023-05-11T03:52:31.738Z,3.38
2023-05-11T03:54:58.153Z,3.22
2023-05-11T03:57:24.538Z,1.92
2023-05-11T03:59:51.008Z,1.92
2023-05-11T04:02:17.494Z,1.35
2023-05-11T04:04:44.017Z,1.33
2023-05-11T04:07:10.432Z,1.10
2023-05-11T04:09:36.933Z,1.02
2023-05-11T04:12:03.492Z,1.10
2023-05-11T04:14:29.887Z,0.70
2023-05-11T04:16:56.300Z,0.88
2023-05-11T04:19:22.827Z,0.80
2023-05-11T04:21:49.247Z,0.82
2023-05-11T04:24:15.969Z,0.73
2023-05-11T04:26:42.425Z,0.65
2023-05-11T04:29:08.819Z,0.82
2023-05-11T04:31:35.317Z,0.80
2023-05-11T04:34:01.786Z,1.17
2023-05-11T04:36:28.182Z,0.80
2023-05-11T04:38:54.579Z,1.10
2023-05-11T04:41:21.030Z,1.02
2023-05-11T04:43:47.460Z,0.82
2023-05-11T04:46:13.902Z,1.20
2023-05-11T04:48:40.370Z,1.20
2023-05-11T04:51:06.959Z,1.27
2023-05-11T04:53:33.403Z,1.52
2023-05-11T04:55:59.834Z,1.23
2023-05-11T04:58:26.256Z,1.02
2023-05-11T05:00:52.679Z,1.27
2023-05-11T05:03:19.279Z,1.23
2023-05-11T05:05:45.863Z,1.10
2023-05-11T05:08:12.285Z,0.88
2023-05-11T05:10:38.741Z,1.35
2023-05-11T05:13:05.166Z,0.88
2023-05-11T05:15:31.595Z,1.00
2023-05-11T05:17:58.082Z,1.00
2023-05-11T05:20:24.582Z,1.30
2023-05-11T05:22:51.065Z,1.27
2023-05-11T05:25:17.492Z,1.20
2023-05-11T05:27:43.916Z,1.00
2023-05-11T05:30:10.352Z,1.00
2023-05-11T05:32:36.994Z,1.00
2023-05-11T05:35:03.512Z,1.23
2023-05-11T05:37:29.955Z,1.48
2023-05-11T05:39:56.349Z,1.15
2023-05-11T05:42:22.825Z,1.38
2023-05-11T05:44:49.271Z,1.40
2023-05-11T05:47:15.939Z,1.52
2023-05-11T05:49:42.399Z,1.17
2023-05-11T05:52:08.788Z,1.60
2023-05-11T05:54:35.222Z,1.33
2023-05-11T05:57:01.642Z,1.88
2023-05-11T05:59:28.101Z,1.50
2023-05-11T06:01:54.541Z,1.40
2023-05-11T06:04:21.007Z,1.25
2023-05-11T06:06:47.415Z,1.33
2023-05-11T06:09:13.829Z,1.30
2023-05-11T06:11:40.202Z,1.17
2023-05-11T06:14:06.869Z,0.98
2023-05-11T06:16:33.354Z,1.00
2023-05-11T06:18:59.908Z,1.10
2023-05-11T06:21:26.402Z,1.10
2023-05-11T06:23:52.836Z,1.00
2023-05-11T06:26:19.273Z,1.02
2023-05-11T06:28:45.920Z,0.82
2023-05-11T06:31:12.449Z,0.95
2023-05-11T06:33:38.957Z,0.90
2023-05-11T06:36:05.598Z,1.05
2023-05-11T06:38:32.038Z,1.10
2023-05-11T06:40:58.488Z,0.95
2023-05-11T06:43:24.941Z,1.00
2023-05-11T06:45:51.462Z,0.80
2023-05-11T06:48:17.922Z,0.70
2023-05-11T06:50:44.302Z,0.60
2023-05-11T06:53:10.760Z,0.70
2023-05-11T06:55:37.145Z,0.60
2023-05-11T06:58:03.545Z,0.50
2023-05-11T07:00:29.913Z,0.40
2023-05-11T07:02:56.426Z,0.68
2023-05-11T07:05:22.824Z,0.80
2023-05-11T07:07:49.247Z,0.63
2023-05-11T07:10:15.977Z,0.43
2023-05-11T07:12:42.427Z,0.50
2023-05-11T07:15:08.839Z,0.30
2023-05-11T07:17:35.274Z,0.47
2023-05-11T07:20:01.746Z,0.40
2023-05-11T07:22:28.179Z,0.50
2023-05-11T07:24:54.574Z,0.45
2023-05-11T07:27:20.984Z,0.35
2023-05-11T07:29:47.362Z,0.80
2023-05-11T07:32:13.738Z,0.70
2023-05-11T07:34:40.154Z,0.60
2023-05-11T07:37:06.895Z,0.60
2023-05-11T07:39:33.337Z,0.70
2023-05-11T07:41:59.821Z,0.63
2023-05-11T07:44:26.271Z,0.80
2023-05-11T07:46:52.666Z,0.70
2023-05-11T07:49:25.435Z,0.55
2023-05-11T07:52:01.796Z,0.63
2023-05-11T07:54:28.205Z,0.80
2023-05-11T07:56:54.649Z,0.57
2023-05-11T07:59:21.068Z,0.60
2023-05-11T08:01:47.558Z,0.68
2023-05-11T08:04:13.977Z,0.60
2023-05-11T08:06:40.417Z,0.70
2023-05-11T08:09:06.969Z,0.47
2023-05-11T08:11:33.439Z,0.60
2023-05-11T08:13:59.920Z,0.70
2023-05-11T08:16:26.389Z,0.52
2023-05-11T08:18:52.897Z,0.68
2023-05-11T08:21:19.355Z,0.57
2023-05-11T08:23:46.011Z,0.65
2023-05-11T08:26:12.406Z,0.70
2023-05-11T08:28:38.858Z,0.80
2023-05-11T08:31:05.302Z,0.77
2023-05-11T08:33:38.188Z,0.50
2023-05-11T08:36:05.350Z,0.57
2023-05-11T08:38:31.791Z,0.80
2023-05-11T08:40:58.243Z,0.68
2023-05-11T08:43:24.657Z,0.90
2023-05-11T08:45:51.083Z,0.93
2023-05-11T08:48:17.504Z,1.00
2023-05-11T08:50:43.877Z,1.17
2023-05-11T08:53:10.329Z,1.17
2023-05-11T08:55:36.922Z,1.00
2023-05-11T08:58:03.493Z,1.10
2023-05-11T09:00:29.989Z,1.00
2023-05-11T09:02:56.472Z,1.17
2023-05-11T09:05:23.035Z,1.20
2023-05-11T09:07:49.540Z,1.48
2023-05-11T09:10:16.133Z,1.60
2023-05-11T09:12:42.551Z,2.00
2023-05-11T09:15:09.021Z,1.75
2023-05-11T09:17:35.466Z,1.40
2023-05-11T09:20:03.632Z,1.40
2023-05-11T09:22:32.015Z,1.65
2023-05-11T09:24:59.634Z,2.00
2023-05-11T09:27:26.049Z,2.20
2023-05-11T09:29:52.459Z,2.00
2023-05-11T09:32:18.883Z,2.03
2023-05-11T09:34:45.548Z,2.35
2023-05-11T09:37:12.158Z,1.80
2023-05-11T09:39:44.105Z,1.90
2023-05-11T09:42:25.080Z,2.00
2023-05-11T09:44:51.516Z,2.30
2023-05-11T09:47:17.987Z,2.20
2023-05-11T09:49:44.727Z,2.20
2023-05-11T09:52:11.181Z,2.35
2023-05-11T09:54:37.728Z,1.95
2023-05-11T09:57:04.421Z,1.80
2023-05-11T09:59:30.850Z,1.80
2023-05-11T10:01:57.321Z,1.50
2023-05-11T10:04:24.299Z,1.75
2023-05-11T10:06:50.912Z,1.77
2023-05-11T10:09:17.313Z,1.60
2023-05-11T10:11:43.757Z,1.40
2023-05-11T10:14:10.274Z,1.40
2023-05-11T10:16:37.049Z,1.40
2023-05-11T10:19:03.611Z,1.30
2023-05-11T10:21:30.194Z,1.75
2023-05-11T10:23:56.606Z,1.10
2023-05-11T10:26:22.999Z,1.00
2023-05-11T10:28:49.416Z,1.15
2023-05-11T10:31:16.159Z,0.90
2023-05-11T10:33:42.598Z,0.90
2023-05-11T10:36:09.109Z,1.00
2023-05-11T10:38:35.491Z,1.00
2023-05-11T10:41:01.903Z,0.90
2023-05-11T10:43:28.276Z,0.80
2023-05-11T10:45:54.714Z,0.98
2023-05-11T10:48:21.146Z,1.20
2023-05-11T10:50:47.580Z,1.25
2023-05-11T10:53:14.009Z,1.38
2023-05-11T10:55:40.460Z,1.10
2023-05-11T10:58:07.076Z,1.00
2023-05-11T11:00:33.522Z,0.95
2023-05-11T11:02:59.987Z,1.20
2023-05-11T11:05:26.405Z,0.98
2023-05-11T11:07:52.884Z,0.90
2023-05-11T11:10:19.601Z,0.90
2023-05-11T11:12:46.198Z,0.95
2023-05-11T11:15:12.646Z,0.70
2023-05-11T11:17:39.088Z,0.90
2023-05-11T11:20:05.485Z,0.88
2023-05-11T11:22:31.970Z,0.63
2023-05-11T11:24:58.420Z,0.90
2023-05-11T11:27:27.706Z,0.80
2023-05-11T11:29:55.914Z,0.95
2023-05-11T11:32:22.341Z,1.00
2023-05-11T11:34:48.783Z,0.80
2023-05-11T11:37:15.193Z,1.10
2023-05-11T11:39:41.643Z,0.80
2023-05-11T11:42:08.143Z,1.20
2023-05-11T11:44:34.584Z,1.55
2023-05-11T11:47:01.064Z,1.10
2023-05-11T11:49:27.507Z,1.67
2023-05-11T11:51:53.912Z,1.60
2023-05-11T11:54:20.356Z,1.50
2023-05-11T11:56:47.130Z,2.10
2023-05-11T11:59:13.570Z,1.90
2023-05-11T12:01:39.969Z,2.00
2023-05-11T12:04:06.537Z,2.50
2023-05-11T12:06:33.143Z,2.30
2023-05-11T12:08:59.626Z,2.08
2023-05-11T12:11:26.063Z,2.70
2023-05-11T12:13:52.521Z,2.75
2023-05-11T12:16:19.138Z,2.10
2023-05-11T12:18:45.600Z,2.53
2023-05-11T12:21:12.242Z,3.13
2023-05-11T12:23:38.621Z,3.30
2023-05-11T12:26:05.039Z,3.72
2023-05-11T12:28:31.505Z,3.85
2023-05-11T12:30:59.900Z,3.20
2023-05-11T12:33:27.096Z,4.78
2023-05-11T12:35:53.485Z,4.53
2023-05-11T12:38:19.954Z,4.30
2023-05-11T12:40:46.382Z,4.05
2023-05-11T12:43:12.756Z,3.58
2023-05-11T12:45:39.222Z,3.53
2023-05-11T12:48:05.704Z,4.40
2023-05-11T12:50:32.135Z,3.83
2023-05-11T12:52:58.525Z,3.35
2023-05-11T12:55:24.954Z,4.07
2023-05-11T12:57:51.366Z,4.10
2023-05-11T13:00:19.020Z,4.53
2023-05-11T13:02:47.269Z,3.63
2023-05-11T13:05:13.768Z,3.67
2023-05-11T13:07:40.173Z,3.00
2023-05-11T13:10:06.636Z,3.22
2023-05-11T13:12:33.113Z,4.22
2023-05-11T13:14:59.482Z,3.58
2023-05-11T13:17:26.043Z,3.20
2023-05-11T13:19:52.522Z,3.40
2023-05-11T13:22:18.910Z,3.13
2023-05-11T13:24:45.290Z,3.47
2023-05-11T13:27:11.700Z,3.22
2023-05-11T13:29:38.108Z,3.00
2023-05-11T13:32:04.574Z,2.53
2023-05-11T13:34:31.028Z,2.40
2023-05-11T13:36:57.442Z,2.70
2023-05-11T13:39:23.880Z,2.60
2023-05-11T13:41:50.289Z,2.22
2023-05-11T13:44:16.734Z,2.70
2023-05-11T13:46:43.228Z,2.13
2023-05-11T13:49:10.037Z,2.40
2023-05-11T13:51:36.530Z,2.42
2023-05-11T13:54:02.927Z,2.25
2023-05-11T13:56:29.360Z,2.28
2023-05-11T13:58:58.439Z,2.28
2023-05-11T14:01:26.198Z,2.15
2023-05-11T14:03:52.795Z,2.00
2023-05-11T14:06:19.221Z,1.80
2023-05-11T14:08:45.673Z,2.20
2023-05-11T14:11:12.120Z,2.03
2023-05-11T14:13:38.565Z,2.60
2023-05-11T14:16:04.981Z,2.88
2023-05-11T14:18:31.623Z,3.15
2023-05-11T14:20:58.111Z,3.25
2023-05-11T14:23:24.500Z,3.28
2023-05-11T14:25:50.909Z,2.67
2023-05-11T14:28:17.296Z,2.65
2023-05-11T14:30:43.767Z,2.45
2023-05-11T14:33:10.224Z,2.22
2023-05-11T14:35:39.575Z,1.60
2023-05-11T14:38:06.358Z,1.90
2023-05-11T14:40:32.800Z,1.92
2023-05-11T14:42:59.222Z,1.83
2023-05-11T14:45:25.647Z,1.48
2023-05-11T14:47:52.139Z,1.92
2023-05-11T14:50:18.560Z,1.63
2023-05-11T14:52:44.958Z,1.70
2023-05-11T14:55:11.416Z,1.65
2023-05-11T14:57:38.006Z,1.95
2023-05-11T15:00:04.548Z,1.88
2023-05-11T15:02:31.029Z,1.88
2023-05-11T15:04:57.505Z,1.98
2023-05-11T15:07:23.957Z,2.53
2023-05-11T15:09:50.431Z,2.55
2023-05-11T15:12:17.271Z,2.20
2023-05-11T15:14:43.733Z,2.88
2023-05-11T15:17:10.192Z,2.22
2023-05-11T15:19:37.076Z,2.53
2023-05-11T15:22:03.480Z,3.10
2023-05-11T15:24:29.961Z,2.92
2023-05-11T15:26:56.412Z,2.70
2023-05-11T15:29:22.830Z,3.00
2023-05-11T15:31:49.321Z,3.22
2023-05-11T15:34:15.772Z,3.33
2023-05-11T15:36:42.337Z,3.97
2023-05-11T15:39:08.729Z,3.40
2023-05-11T15:41:35.229Z,3.38
2023-05-11T15:44:01.631Z,3.47
2023-05-11T15:46:28.294Z,3.80
2023-05-11T15:48:56.928Z,3.33
2023-05-11T15:51:24.698Z,2.78
2023-05-11T15:53:51.117Z,3.28
2023-05-11T15:56:17.525Z,2.72
2023-05-11T15:58:43.981Z,3.30
2023-05-11T16:01:10.488Z,3.13
2023-05-11T16:03:37.028Z,2.80
2023-05-11T16:06:03.537Z,3.42
2023-05-11T16:08:30.007Z,3.17
2023-05-11T16:10:56.420Z,2.95
2023-05-11T16:13:22.859Z,3.17
2023-05-11T16:15:49.272Z,2.13
2023-05-11T16:18:15.719Z,2.58
2023-05-11T16:20:42.242Z,2.17
2023-05-11T16:23:08.876Z,2.53
2023-05-11T16:25:35.365Z,1.90
2023-05-11T16:28:01.753Z,1.90
2023-05-11T16:30:28.303Z,2.05
2023-05-11T16:32:54.955Z,1.88
2023-05-11T16:35:21.469Z,2.15
2023-05-11T16:37:48.206Z,2.33
2023-05-11T16:40:14.861Z,3.00
2023-05-11T16:42:41.411Z,3.08
2023-05-11T16:45:07.900Z,3.75
2023-05-11T16:47:34.416Z,4.57
2023-05-11T16:50:00.922Z,3.95
2023-05-11T16:52:27.344Z,4.43
2023-05-11T16:54:53.777Z,4.15
2023-05-11T16:57:20.167Z,3.67
2023-05-11T16:59:46.628Z,3.92
2023-05-11T17:02:13.032Z,3.55
2023-05-11T17:04:39.533Z,3.47
2023-05-11T17:07:05.963Z,3.63
2023-05-11T17:09:32.372Z,3.55
2023-05-11T17:11:58.832Z,3.42
2023-05-11T17:14:25.227Z,3.80
2023-05-11T17:16:51.690Z,3.25
2023-05-11T17:19:18.249Z,3.22
2023-05-11T17:21:44.761Z,3.50
2023-05-11T17:24:11.271Z,3.10
2023-05-11T17:26:47.053Z,3.42
2023-05-11T17:29:14.532Z,3.30
2023-05-11T17:31:41.097Z,3.17
2023-05-11T17:34:07.871Z,3.13
2023-05-11T17:36:34.443Z,3.20
2023-05-11T17:39:00.906Z,3.65
2023-05-11T17:41:27.314Z,3.17
2023-05-11T17:43:53.737Z,2.95
2023-05-11T17:46:20.266Z,2.58
2023-05-11T17:48:46.682Z,2.70
2023-05-11T17:51:13.134Z,3.08
2023-05-11T17:53:39.602Z,3.55
2023-05-11T17:56:05.971Z,3.00
2023-05-11T17:58:32.404Z,3.55
2023-05-11T18:00:58.801Z,3.35
2023-05-11T18:03:25.366Z,3.33
2023-05-11T18:05:51.871Z,3.15
2023-05-11T18:08:18.295Z,3.17
2023-05-11T18:10:44.763Z,3.17
2023-05-11T18:13:11.162Z,2.85
2023-05-11T18:15:37.811Z,2.85
2023-05-11T18:18:04.451Z,2.25
2023-05-11T18:20:30.993Z,2.22
2023-05-11T18:22:57.467Z,2.50
2023-05-11T18:25:23.858Z,2.45
2023-05-11T18:27:50.324Z,2.08
2023-05-11T18:30:16.865Z,1.90
2023-05-11T18:32:43.449Z,2.22
2023-05-11T18:35:09.918Z,2.10
2023-05-11T18:37:36.660Z,1.90
2023-05-11T18:40:03.273Z,2.20
2023-05-11T18:42:29.734Z,2.13
2023-05-11T18:44:56.145Z,1.85
2023-05-11T18:47:22.581Z,2.15
2023-05-11T18:49:49.237Z,2.03
2023-05-11T18:52:15.741Z,1.90
2023-05-11T18:54:42.205Z,1.90
2023-05-11T18:57:08.622Z,2.30
2023-05-11T18:59:35.059Z,2.25
2023-05-11T19:02:01.574Z,1.90
2023-05-11T19:04:28.111Z,2.63
2023-05-11T19:06:54.565Z,2.35
2023-05-11T19:09:21.033Z,2.08
2023-05-11T19:11:47.466Z,2.40
2023-05-11T19:14:13.934Z,2.47
2023-05-11T19:16:40.399Z,2.60
2023-05-11T19:19:06.860Z,2.72
2023-05-11T19:21:33.369Z,2.67
2023-05-11T19:23:59.805Z,2.33
2023-05-11T19:26:26.238Z,2.42
2023-05-11T19:28:52.674Z,2.80
2023-05-11T19:31:19.113Z,2.90
2023-05-11T19:33:45.705Z,2.85
2023-05-11T19:36:12.140Z,2.53
2023-05-11T19:38:38.565Z,2.50
2023-05-11T19:41:04.968Z,2.72
2023-05-11T19:43:31.395Z,2.42
2023-05-11T19:45:57.876Z,2.70
2023-05-11T19:48:24.292Z,2.17
2023-05-11T19:50:50.687Z,2.67
2023-05-11T19:53:17.092Z,2.25
2023-05-11T19:55:44.450Z,2.75
2023-05-11T19:58:11.748Z,2.05
2023-05-11T20:00:38.140Z,2.53
2023-05-11T20:03:04.681Z,2.45
2023-05-11T20:05:31.181Z,2.65
2023-05-11T20:07:57.588Z,2.40
2023-05-11T20:10:24.036Z,2.80
2023-05-11T20:12:50.453Z,2.90
2023-05-11T20:15:16.886Z,2.65
2023-05-11T20:17:43.373Z,3.05
2023-05-11T20:20:09.872Z,2.70
2023-05-11T20:22:36.672Z,2.67
2023-05-11T20:25:03.386Z,2.67
2023-05-11T20:27:29.810Z,2.50
2023-05-11T20:29:56.315Z,2.70
2023-05-11T20:32:22.740Z,2.90
2023-05-11T20:34:49.137Z,2.60
2023-05-11T20:37:15.685Z,2.22
2023-05-11T20:39:42.092Z,2.60
2023-05-11T20:42:08.564Z,2.42
2023-05-11T20:44:35.036Z,2.53
2023-05-11T20:47:01.482Z,2.88
2023-05-11T20:49:38.350Z,2.80
2023-05-11T20:52:05.863Z,2.30
2023-05-11T20:54:32.265Z,2.15
2023-05-11T20:56:58.770Z,2.75
2023-05-11T21:01:54.637Z,2.67
2023-05-11T21:04:21.068Z,2.60
2023-05-11T21:06:47.495Z,2.38
2023-05-11T21:09:13.887Z,2.50
2023-05-11T21:11:40.325Z,3.53
2023-05-11T21:14:06.880Z,3.10
2023-05-11T21:16:33.336Z,2.90
2023-05-11T21:18:59.934Z,3.35
2023-05-11T21:21:26.352Z,3.20
2023-05-11T21:23:52.811Z,3.40
2023-05-11T21:26:19.288Z,3.13
2023-05-11T21:28:45.731Z,3.00
2023-05-11T21:31:12.151Z,3.53
2023-05-11T21:33:38.585Z,3.65
2023-05-11T21:36:05.868Z,3.85
2023-05-11T21:38:32.399Z,4.00
2023-05-11T21:40:58.800Z,4.50
2023-05-11T21:43:25.239Z,4.68
2023-05-11T21:45:51.700Z,4.55
2023-05-11T21:48:18.166Z,4.05
2023-05-11T21:50:44.580Z,4.10
2023-05-11T21:53:11.004Z,4.40
2023-05-11T21:55:37.472Z,4.90
2023-05-11T21:58:03.911Z,5.15
2023-05-11T22:00:30.323Z,4.55
2023-05-11T22:02:56.842Z,4.22
2023-05-11T22:05:23.315Z,4.00
2023-05-11T22:07:52.366Z,4.53
2023-05-11T22:10:20.586Z,4.30
2023-05-11T22:12:47.069Z,4.68
2023-05-11T22:15:13.450Z,5.05
2023-05-11T22:17:39.924Z,5.38
2023-05-11T22:20:06.663Z,5.50
2023-05-11T22:22:33.063Z,5.57
2023-05-11T22:24:59.499Z,5.63
2023-05-11T22:27:25.909Z,5.93
2023-05-11T22:29:52.377Z,5.38
2023-05-11T22:32:19.758Z,5.55
2023-05-11T22:34:46.216Z,4.95
2023-05-11T22:37:12.656Z,5.13
2023-05-11T22:39:39.025Z,5.05
2023-05-11T22:42:05.452Z,5.10
2023-05-11T22:44:31.893Z,5.20
2023-05-11T22:46:58.365Z,4.95
2023-05-11T22:49:24.749Z,4.72
2023-05-11T22:51:51.143Z,4.63
2023-05-11T22:54:17.654Z,4.18
2023-05-11T22:56:44.148Z,3.65
2023-05-11T22:59:10.549Z,4.60
2023-05-11T23:01:37.027Z,4.07
2023-05-11T23:04:03.532Z,5.38
2023-05-11T23:06:29.946Z,4.32
2023-05-11T23:08:56.412Z,4.13
2023-05-11T23:11:22.860Z,4.38
2023-05-11T23:13:49.293Z,4.03
2023-05-11T23:16:15.887Z,3.85
2023-05-11T23:18:42.436Z,4.40
2023-05-11T23:21:09.017Z,4.05
2023-05-11T23:23:35.493Z,4.20
2023-05-11T23:26:01.958Z,3.80
2023-05-11T23:28:28.352Z,3.47
2023-05-11T23:30:54.787Z,3.88
2023-05-11T23:33:21.236Z,3.22
2023-05-11T23:35:47.705Z,3.38
2023-05-11T23:38:14.139Z,3.75
2023-05-11T23:40:40.535Z,3.95
2023-05-11T23:43:06.920Z,3.55
2023-05-11T23:45:33.396Z,4.00
2023-05-11T23:47:59.882Z,3.72
2023-05-11T23:50:26.372Z,3.30
2023-05-11T23:52:52.809Z,4.10
2023-05-11T23:55:19.171Z,4.25
2023-05-11T23:57:45.830Z,3.70
